sensor_id;sensor_type;location;lat;lon;timestamp;P1;durP1;ratioP1;P2;durP2;ratioP2
61025;SDS011;46911;32.650;-16.902;2022-09-09T00:00:23;18.48;;;4.13;;
61025;SDS011;46911;32.650;-16.902;2022-09-09T00:02:30;18.15;;;4.03;;
61025;SDS011;46911;32.650;-16.902;2022-09-09T00:04:35;11.70;;;3.83;;
61025;SDS011;46911;32.650;-16.902;2022-09-09T00:09:13;15.40;;;3.60;;
61025;SDS011;46911;32.650;-16.902;2022-09-09T00:11:25;9.90;;;3.40;;
61025;SDS011;46911;32.650;-16.902;2022-09-09T00:13:37;13.43;;;3.50;;
61025;SDS011;46911;32.650;-16.902;2022-09-09T00:20:35;18.25;;;4.25;;
61025;SDS011;46911;32.650;-16.902;2022-09-09T00:22:46;18.65;;;3.47;;
61025;SDS011;46911;32.650;-16.902;2022-09-09T00:24:59;17.75;;;3.40;;
61025;SDS011;46911;32.650;-16.902;2022-09-09T00:27:19;11.93;;;3.08;;
61025;SDS011;46911;32.650;-16.902;2022-09-09T00:29:47;14.38;;;3.00;;
61025;SDS011;46911;32.650;-16.902;2022-09-09T00:31:57;9.70;;;3.17;;
61025;SDS011;46911;32.650;-16.902;2022-09-09T00:34:09;14.38;;;3.30;;
61025;SDS011;46911;32.650;-16.902;2022-09-09T00:36:14;16.35;;;3.17;;
61025;SDS011;46911;32.650;-16.902;2022-09-09T00:38:35;24.60;;;3.80;;
61025;SDS011;46911;32.650;-16.902;2022-09-09T00:40:55;11.52;;;3.58;;
61025;SDS011;46911;32.650;-16.902;2022-09-09T00:45:37;15.25;;;3.03;;
61025;SDS011;46911;32.650;-16.902;2022-09-09T00:47:55;21.85;;;3.13;;
61025;SDS011;46911;32.650;-16.902;2022-09-09T00:52:15;10.27;;;3.17;;
61025;SDS011;46911;32.650;-16.902;2022-09-09T01:01:31;9.05;;;3.25;;
61025;SDS011;46911;32.650;-16.902;2022-09-09T01:05:49;13.93;;;3.65;;
61025;SDS011;46911;32.650;-16.902;2022-09-09T01:07:53;18.48;;;4.35;;
61025;SDS011;46911;32.650;-16.902;2022-09-09T01:09:57;13.30;;;3.63;;
61025;SDS011;46911;32.650;-16.902;2022-09-09T01:12:09;19.00;;;3.72;;
61025;SDS011;46911;32.650;-16.902;2022-09-09T01:14:35;16.25;;;4.38;;
61025;SDS011;46911;32.650;-16.902;2022-09-09T01:16:42;17.40;;;4.07;;
61025;SDS011;46911;32.650;-16.902;2022-09-09T01:18:48;14.40;;;3.40;;
61025;SDS011;46911;32.650;-16.902;2022-09-09T01:21:13;16.13;;;5.05;;
61025;SDS011;46911;32.650;-16.902;2022-09-09T01:28:21;10.82;;;4.13;;
61025;SDS011;46911;32.650;-16.902;2022-09-09T01:30:37;12.75;;;5.00;;
61025;SDS011;46911;32.650;-16.902;2022-09-09T01:34:47;14.75;;;3.92;;
61025;SDS011;46911;32.650;-16.902;2022-09-09T01:38:55;14.63;;;3.83;;
61025;SDS011;46911;32.650;-16.902;2022-09-09T01:41:00;14.05;;;3.80;;
61025;SDS011;46911;32.650;-16.902;2022-09-09T01:43:11;22.60;;;4.38;;
61025;SDS011;46911;32.650;-16.902;2022-09-09T01:45:16;18.88;;;3.72;;
61025;SDS011;46911;32.650;-16.902;2022-09-09T01:47:17;11.80;;;3.95;;
61025;SDS011;46911;32.650;-16.902;2022-09-09T01:49:41;18.02;;;4.60;;
61025;SDS011;46911;32.650;-16.902;2022-09-09T01:51:53;14.93;;;3.88;;
61025;SDS011;46911;32.650;-16.902;2022-09-09T01:54:03;16.02;;;4.38;;
61025;SDS011;46911;32.650;-16.902;2022-09-09T02:08:03;20.30;;;4.55;;
61025;SDS011;46911;32.650;-16.902;2022-09-09T02:12:55;15.25;;;4.82;;
61025;SDS011;46911;32.650;-16.902;2022-09-09T02:15:11;9.30;;;3.92;;
61025;SDS011;46911;32.650;-16.902;2022-09-09T02:17:28;11.32;;;4.50;;
61025;SDS011;46911;32.650;-16.902;2022-09-09T02:19:42;14.38;;;4.43;;
61025;SDS011;46911;32.650;-16.902;2022-09-09T02:21:57;13.52;;;3.78;;
61025;SDS011;46911;32.650;-16.902;2022-09-09T02:24:02;12.93;;;4.07;;
61025;SDS011;46911;32.650;-16.902;2022-09-09T02:26:16;12.85;;;4.22;;
61025;SDS011;46911;32.650;-16.902;2022-09-09T02:28:26;15.13;;;4.97;;
61025;SDS011;46911;32.650;-16.902;2022-09-09T02:30:32;11.77;;;3.80;;
61025;SDS011;46911;32.650;-16.902;2022-09-09T02:32:38;12.13;;;3.70;;
61025;SDS011;46911;32.650;-16.902;2022-09-09T02:34:45;12.13;;;3.70;;
61025;SDS011;46911;32.650;-16.902;2022-09-09T02:36:49;16.08;;;4.55;;
61025;SDS011;46911;32.650;-16.902;2022-09-09T02:39:00;24.80;;;3.97;;
61025;SDS011;46911;32.650;-16.902;2022-09-09T02:41:07;18.02;;;3.85;;
61025;SDS011;46911;32.650;-16.902;2022-09-09T02:43:14;19.27;;;3.60;;
61025;SDS011;46911;32.650;-16.902;2022-09-09T02:45:22;13.18;;;3.72;;
61025;SDS011;46911;32.650;-16.902;2022-09-09T02:47:29;21.35;;;4.25;;
61025;SDS011;46911;32.650;-16.902;2022-09-09T02:52:14;10.38;;;3.78;;
61025;SDS011;46911;32.650;-16.902;2022-09-09T02:56:38;14.27;;;4.05;;
61025;SDS011;46911;32.650;-16.902;2022-09-09T02:58:43;16.70;;;3.97;;
61025;SDS011;46911;32.650;-16.902;2022-09-09T03:00:48;16.17;;;3.67;;
61025;SDS011;46911;32.650;-16.902;2022-09-09T03:02:52;14.40;;;4.07;;
61025;SDS011;46911;32.650;-16.902;2022-09-09T03:04:54;13.13;;;4.10;;
61025;SDS011;46911;32.650;-16.902;2022-09-09T03:06:56;13.02;;;3.67;;
61025;SDS011;46911;32.650;-16.902;2022-09-09T03:09:00;9.05;;;3.25;;
61025;SDS011;46911;32.650;-16.902;2022-09-09T03:11:04;16.30;;;3.60;;
61025;SDS011;46911;32.650;-16.902;2022-09-09T03:13:08;11.50;;;3.63;;
61025;SDS011;46911;32.650;-16.902;2022-09-09T03:15:15;12.80;;;3.53;;
61025;SDS011;46911;32.650;-16.902;2022-09-09T03:17:22;10.98;;;3.38;;
61025;SDS011;46911;32.650;-16.902;2022-09-09T03:19:29;14.93;;;5.03;;
61025;SDS011;46911;32.650;-16.902;2022-09-09T03:21:34;12.82;;;2.97;;
61025;SDS011;46911;32.650;-16.902;2022-09-09T03:23:36;18.50;;;3.03;;
61025;SDS011;46911;32.650;-16.902;2022-09-09T03:25:48;12.02;;;3.00;;
61025;SDS011;46911;32.650;-16.902;2022-09-09T03:27:55;18.75;;;3.15;;
61025;SDS011;46911;32.650;-16.902;2022-09-09T03:30:01;9.95;;;2.80;;
61025;SDS011;46911;32.650;-16.902;2022-09-09T03:32:04;10.18;;;2.83;;
61025;SDS011;46911;32.650;-16.902;2022-09-09T03:34:13;17.33;;;3.17;;
61025;SDS011;46911;32.650;-16.902;2022-09-09T03:36:17;17.50;;;3.33;;
61025;SDS011;46911;32.650;-16.902;2022-09-09T03:38:21;16.95;;;3.78;;
61025;SDS011;46911;32.650;-16.902;2022-09-09T03:40:28;12.88;;;2.85;;
61025;SDS011;46911;32.650;-16.902;2022-09-09T03:42:29;11.68;;;3.95;;
61025;SDS011;46911;32.650;-16.902;2022-09-09T03:44:31;13.07;;;2.78;;
61025;SDS011;46911;32.650;-16.902;2022-09-09T03:46:35;11.05;;;2.92;;
61025;SDS011;46911;32.650;-16.902;2022-09-09T03:48:36;16.33;;;3.50;;
61025;SDS011;46911;32.650;-16.902;2022-09-09T03:50:43;16.13;;;2.72;;
61025;SDS011;46911;32.650;-16.902;2022-09-09T03:52:48;15.57;;;3.13;;
61025;SDS011;46911;32.650;-16.902;2022-09-09T03:54:54;9.60;;;2.70;;
61025;SDS011;46911;32.650;-16.902;2022-09-09T03:56:57;13.38;;;2.90;;
61025;SDS011;46911;32.650;-16.902;2022-09-09T03:58:59;16.70;;;3.00;;
61025;SDS011;46911;32.650;-16.902;2022-09-09T04:01:01;14.43;;;3.72;;
61025;SDS011;46911;32.650;-16.902;2022-09-09T04:03:10;15.70;;;2.80;;
61025;SDS011;46911;32.650;-16.902;2022-09-09T04:05:12;19.30;;;3.40;;
61025;SDS011;46911;32.650;-16.902;2022-09-09T04:07:20;9.07;;;2.60;;
61025;SDS011;46911;32.650;-16.902;2022-09-09T04:09:24;12.00;;;3.50;;
61025;SDS011;46911;32.650;-16.902;2022-09-09T04:11:26;10.77;;;2.67;;
61025;SDS011;46911;32.650;-16.902;2022-09-09T04:13:29;13.23;;;3.10;;
61025;SDS011;46911;32.650;-16.902;2022-09-09T04:15:36;12.32;;;2.88;;
61025;SDS011;46911;32.650;-16.902;2022-09-09T04:17:43;12.23;;;2.85;;
61025;SDS011;46911;32.650;-16.902;2022-09-09T04:19:44;18.05;;;2.90;;
61025;SDS011;46911;32.650;-16.902;2022-09-09T04:21:44;8.27;;;2.85;;
61025;SDS011;46911;32.650;-16.902;2022-09-09T04:23:50;13.05;;;3.33;;
61025;SDS011;46911;32.650;-16.902;2022-09-09T04:25:54;9.13;;;2.78;;
61025;SDS011;46911;32.650;-16.902;2022-09-09T04:28:00;19.75;;;2.80;;
61025;SDS011;46911;32.650;-16.902;2022-09-09T04:30:03;18.98;;;3.08;;
61025;SDS011;46911;32.650;-16.902;2022-09-09T04:32:08;10.57;;;3.00;;
61025;SDS011;46911;32.650;-16.902;2022-09-09T04:34:09;12.85;;;2.65;;
61025;SDS011;46911;32.650;-16.902;2022-09-09T04:36:12;10.82;;;2.72;;
61025;SDS011;46911;32.650;-16.902;2022-09-09T04:38:14;16.05;;;3.03;;
61025;SDS011;46911;32.650;-16.902;2022-09-09T04:40:16;17.00;;;2.67;;
61025;SDS011;46911;32.650;-16.902;2022-09-09T04:42:17;17.23;;;3.08;;
61025;SDS011;46911;32.650;-16.902;2022-09-09T04:44:21;13.18;;;2.83;;
61025;SDS011;46911;32.650;-16.902;2022-09-09T04:46:22;13.05;;;3.38;;
61025;SDS011;46911;32.650;-16.902;2022-09-09T04:48:27;11.27;;;2.55;;
61025;SDS011;46911;32.650;-16.902;2022-09-09T04:50:31;12.48;;;2.63;;
61025;SDS011;46911;32.650;-16.902;2022-09-09T04:52:33;13.30;;;2.63;;
61025;SDS011;46911;32.650;-16.902;2022-09-09T04:54:36;19.05;;;3.38;;
61025;SDS011;46911;32.650;-16.902;2022-09-09T04:56:37;13.13;;;3.33;;
61025;SDS011;46911;32.650;-16.902;2022-09-09T04:58:49;22.63;;;3.97;;
61025;SDS011;46911;32.650;-16.902;2022-09-09T05:00:51;10.43;;;2.78;;
61025;SDS011;46911;32.650;-16.902;2022-09-09T05:02:58;13.07;;;2.90;;
61025;SDS011;46911;32.650;-16.902;2022-09-09T05:05:06;13.35;;;3.03;;
61025;SDS011;46911;32.650;-16.902;2022-09-09T05:07:11;12.32;;;3.05;;
61025;SDS011;46911;32.650;-16.902;2022-09-09T05:09:14;19.08;;;2.72;;
61025;SDS011;46911;32.650;-16.902;2022-09-09T05:13:20;8.38;;;2.53;;
61025;SDS011;46911;32.650;-16.902;2022-09-09T05:15:23;16.60;;;2.90;;
61025;SDS011;46911;32.650;-16.902;2022-09-09T05:17:24;8.77;;;2.53;;
61025;SDS011;46911;32.650;-16.902;2022-09-09T05:19:25;8.48;;;2.20;;
61025;SDS011;46911;32.650;-16.902;2022-09-09T05:21:27;16.92;;;2.17;;
61025;SDS011;46911;32.650;-16.902;2022-09-09T05:23:33;13.82;;;2.72;;
61025;SDS011;46911;32.650;-16.902;2022-09-09T05:25:34;13.88;;;2.20;;
61025;SDS011;46911;32.650;-16.902;2022-09-09T05:27:39;11.82;;;2.60;;
61025;SDS011;46911;32.650;-16.902;2022-09-09T05:29:42;14.05;;;2.97;;
61025;SDS011;46911;32.650;-16.902;2022-09-09T05:31:45;20.83;;;3.55;;
61025;SDS011;46911;32.650;-16.902;2022-09-09T05:33:52;9.57;;;2.33;;
61025;SDS011;46911;32.650;-16.902;2022-09-09T05:35:59;16.85;;;2.30;;
61025;SDS011;46911;32.650;-16.902;2022-09-09T05:38:11;9.32;;;2.20;;
61025;SDS011;46911;32.650;-16.902;2022-09-09T05:40:14;11.38;;;2.63;;
61025;SDS011;46911;32.650;-16.902;2022-09-09T05:42:17;9.70;;;2.67;;
61025;SDS011;46911;32.650;-16.902;2022-09-09T05:44:21;9.13;;;2.30;;
61025;SDS011;46911;32.650;-16.902;2022-09-09T05:46:27;22.35;;;3.33;;
61025;SDS011;46911;32.650;-16.902;2022-09-09T05:48:30;11.18;;;2.65;;
61025;SDS011;46911;32.650;-16.902;2022-09-09T05:50:39;11.25;;;2.55;;
61025;SDS011;46911;32.650;-16.902;2022-09-09T05:52:41;11.88;;;2.45;;
61025;SDS011;46911;32.650;-16.902;2022-09-09T05:54:45;15.52;;;2.75;;
61025;SDS011;46911;32.650;-16.902;2022-09-09T05:56:48;10.73;;;2.75;;
61025;SDS011;46911;32.650;-16.902;2022-09-09T05:58:51;12.02;;;2.85;;
61025;SDS011;46911;32.650;-16.902;2022-09-09T06:01:15;10.48;;;2.22;;
61025;SDS011;46911;32.650;-16.902;2022-09-09T06:03:18;11.60;;;2.65;;
61025;SDS011;46911;32.650;-16.902;2022-09-09T06:05:25;7.90;;;2.28;;
61025;SDS011;46911;32.650;-16.902;2022-09-09T06:07:31;17.50;;;2.72;;
61025;SDS011;46911;32.650;-16.902;2022-09-09T06:09:34;9.77;;;2.15;;
61025;SDS011;46911;32.650;-16.902;2022-09-09T06:11:38;12.85;;;3.03;;
61025;SDS011;46911;32.650;-16.902;2022-09-09T06:13:49;13.20;;;2.45;;
61025;SDS011;46911;32.650;-16.902;2022-09-09T06:15:55;15.27;;;2.55;;
61025;SDS011;46911;32.650;-16.902;2022-09-09T06:17:59;14.32;;;2.50;;
61025;SDS011;46911;32.650;-16.902;2022-09-09T06:20:03;18.48;;;2.60;;
61025;SDS011;46911;32.650;-16.902;2022-09-09T06:22:07;17.30;;;3.67;;
61025;SDS011;46911;32.650;-16.902;2022-09-09T06:24:10;10.60;;;2.50;;
61025;SDS011;46911;32.650;-16.902;2022-09-09T06:26:19;11.25;;;2.25;;
61025;SDS011;46911;32.650;-16.902;2022-09-09T06:28:25;14.35;;;3.20;;
61025;SDS011;46911;32.650;-16.902;2022-09-09T06:30:26;6.65;;;2.35;;
61025;SDS011;46911;32.650;-16.902;2022-09-09T06:32:27;20.55;;;3.95;;
61025;SDS011;46911;32.650;-16.902;2022-09-09T06:34:29;9.98;;;2.15;;
61025;SDS011;46911;32.650;-16.902;2022-09-09T06:36:36;18.17;;;2.60;;
61025;SDS011;46911;32.650;-16.902;2022-09-09T06:38:40;14.93;;;2.47;;
61025;SDS011;46911;32.650;-16.902;2022-09-09T06:40:56;11.63;;;2.67;;
61025;SDS011;46911;32.650;-16.902;2022-09-09T06:42:59;15.27;;;2.83;;
61025;SDS011;46911;32.650;-16.902;2022-09-09T06:45:15;16.27;;;2.58;;
61025;SDS011;46911;32.650;-16.902;2022-09-09T06:47:23;25.10;;;3.47;;
61025;SDS011;46911;32.650;-16.902;2022-09-09T06:49:31;17.98;;;3.05;;
61025;SDS011;46911;32.650;-16.902;2022-09-09T06:51:36;13.20;;;2.40;;
61025;SDS011;46911;32.650;-16.902;2022-09-09T06:53:45;15.30;;;3.28;;
61025;SDS011;46911;32.650;-16.902;2022-09-09T06:55:49;16.10;;;2.90;;
61025;SDS011;46911;32.650;-16.902;2022-09-09T06:57:50;18.27;;;3.40;;
61025;SDS011;46911;32.650;-16.902;2022-09-09T06:59:56;21.92;;;3.85;;
61025;SDS011;46911;32.650;-16.902;2022-09-09T07:02:01;25.77;;;4.53;;
61025;SDS011;46911;32.650;-16.902;2022-09-09T07:04:06;17.85;;;3.35;;
61025;SDS011;46911;32.650;-16.902;2022-09-09T07:06:15;21.55;;;2.70;;
61025;SDS011;46911;32.650;-16.902;2022-09-09T07:08:19;23.63;;;3.58;;
61025;SDS011;46911;32.650;-16.902;2022-09-09T07:10:23;18.08;;;3.05;;
61025;SDS011;46911;32.650;-16.902;2022-09-09T07:12:26;17.85;;;3.25;;
61025;SDS011;46911;32.650;-16.902;2022-09-09T07:14:31;11.48;;;2.53;;
61025;SDS011;46911;32.650;-16.902;2022-09-09T07:16:40;8.15;;;2.55;;
61025;SDS011;46911;32.650;-16.902;2022-09-09T07:18:45;17.58;;;2.78;;
61025;SDS011;46911;32.650;-16.902;2022-09-09T07:20:54;7.93;;;2.50;;
61025;SDS011;46911;32.650;-16.902;2022-09-09T07:22:58;12.25;;;2.55;;
61025;SDS011;46911;32.650;-16.902;2022-09-09T07:24:59;14.80;;;2.72;;
61025;SDS011;46911;32.650;-16.902;2022-09-09T07:27:03;12.02;;;2.20;;
61025;SDS011;46911;32.650;-16.902;2022-09-09T07:29:06;25.20;;;3.53;;
61025;SDS011;46911;32.650;-16.902;2022-09-09T07:31:17;15.38;;;3.58;;
61025;SDS011;46911;32.650;-16.902;2022-09-09T07:35:27;17.70;;;2.95;;
61025;SDS011;46911;32.650;-16.902;2022-09-09T07:37:30;16.38;;;3.30;;
61025;SDS011;46911;32.650;-16.902;2022-09-09T07:39:33;17.23;;;3.38;;
61025;SDS011;46911;32.650;-16.902;2022-09-09T07:41:38;12.43;;;2.53;;
61025;SDS011;46911;32.650;-16.902;2022-09-09T07:43:42;11.15;;;2.63;;
61025;SDS011;46911;32.650;-16.902;2022-09-09T07:45:46;10.95;;;2.35;;
61025;SDS011;46911;32.650;-16.902;2022-09-09T07:47:47;21.00;;;2.40;;
61025;SDS011;46911;32.650;-16.902;2022-09-09T07:49:49;13.05;;;2.25;;
61025;SDS011;46911;32.650;-16.902;2022-09-09T07:51:54;19.27;;;2.47;;
61025;SDS011;46911;32.650;-16.902;2022-09-09T07:53:57;17.00;;;2.70;;
61025;SDS011;46911;32.650;-16.902;2022-09-09T07:56:07;15.30;;;3.03;;
61025;SDS011;46911;32.650;-16.902;2022-09-09T07:58:10;23.33;;;3.00;;
61025;SDS011;46911;32.650;-16.902;2022-09-09T08:00:11;15.13;;;3.05;;
61025;SDS011;46911;32.650;-16.902;2022-09-09T08:02:22;18.95;;;2.20;;
61025;SDS011;46911;32.650;-16.902;2022-09-09T08:04:28;19.60;;;3.15;;
61025;SDS011;46911;32.650;-16.902;2022-09-09T08:06:35;15.05;;;2.58;;
61025;SDS011;46911;32.650;-16.902;2022-09-09T08:08:40;14.75;;;2.78;;
61025;SDS011;46911;32.650;-16.902;2022-09-09T08:10:44;16.10;;;2.67;;
61025;SDS011;46911;32.650;-16.902;2022-09-09T08:12:45;13.43;;;3.08;;
61025;SDS011;46911;32.650;-16.902;2022-09-09T08:14:49;12.73;;;2.72;;
61025;SDS011;46911;32.650;-16.902;2022-09-09T08:16:52;18.90;;;3.90;;
61025;SDS011;46911;32.650;-16.902;2022-09-09T08:18:58;16.83;;;2.90;;
61025;SDS011;46911;32.650;-16.902;2022-09-09T08:21:06;22.13;;;3.33;;
61025;SDS011;46911;32.650;-16.902;2022-09-09T08:23:14;14.07;;;2.75;;
61025;SDS011;46911;32.650;-16.902;2022-09-09T08:25:15;12.02;;;2.83;;
61025;SDS011;46911;32.650;-16.902;2022-09-09T08:27:22;24.08;;;2.92;;
61025;SDS011;46911;32.650;-16.902;2022-09-09T08:29:24;9.75;;;2.55;;
61025;SDS011;46911;32.650;-16.902;2022-09-09T08:31:31;12.07;;;2.38;;
61025;SDS011;46911;32.650;-16.902;2022-09-09T08:33:40;8.25;;;2.30;;
61025;SDS011;46911;32.650;-16.902;2022-09-09T08:35:49;18.27;;;3.15;;
61025;SDS011;46911;32.650;-16.902;2022-09-09T08:37:53;13.75;;;3.25;;
61025;SDS011;46911;32.650;-16.902;2022-09-09T08:39:57;14.32;;;3.05;;
61025;SDS011;46911;32.650;-16.902;2022-09-09T08:44:41;9.48;;;1.70;;
61025;SDS011;46911;32.650;-16.902;2022-09-09T08:46:35;14.93;;;2.13;;
61025;SDS011;46911;32.650;-16.902;2022-09-09T08:48:56;12.35;;;2.25;;
61025;SDS011;46911;32.650;-16.902;2022-09-09T08:51:07;7.18;;;1.98;;
61025;SDS011;46911;32.650;-16.902;2022-09-09T08:53:22;9.68;;;1.95;;
61025;SDS011;46911;32.650;-16.902;2022-09-09T08:57:32;11.27;;;2.17;;
61025;SDS011;46911;32.650;-16.902;2022-09-09T08:59:34;10.23;;;1.95;;
61025;SDS011;46911;32.650;-16.902;2022-09-09T09:06:18;24.52;;;3.03;;
61025;SDS011;46911;32.650;-16.902;2022-09-09T09:08:43;8.00;;;1.58;;
61025;SDS011;46911;32.650;-16.902;2022-09-09T09:10:56;15.80;;;1.88;;
61025;SDS011;46911;32.650;-16.902;2022-09-09T09:13:03;14.45;;;1.90;;
61025;SDS011;46911;32.650;-16.902;2022-09-09T09:15:18;5.20;;;1.50;;
61025;SDS011;46911;32.650;-16.902;2022-09-09T09:17:28;10.48;;;1.73;;
61025;SDS011;46911;32.650;-16.902;2022-09-09T09:19:43;9.90;;;2.10;;
61025;SDS011;46911;32.650;-16.902;2022-09-09T09:24:19;11.27;;;1.92;;
61025;SDS011;46911;32.650;-16.902;2022-09-09T09:26:29;10.68;;;2.28;;
61025;SDS011;46911;32.650;-16.902;2022-09-09T09:28:33;10.02;;;2.10;;
61025;SDS011;46911;32.650;-16.902;2022-09-09T09:30:49;11.20;;;1.52;;
61025;SDS011;46911;32.650;-16.902;2022-09-09T09:35:33;8.38;;;1.40;;
61025;SDS011;46911;32.650;-16.902;2022-09-09T09:37:34;7.88;;;2.15;;
61025;SDS011;46911;32.650;-16.902;2022-09-09T09:39:37;8.80;;;1.90;;
61025;SDS011;46911;32.650;-16.902;2022-09-09T09:41:43;8.88;;;1.58;;
61025;SDS011;46911;32.650;-16.902;2022-09-09T09:43:53;8.32;;;1.98;;
61025;SDS011;46911;32.650;-16.902;2022-09-09T09:45:55;13.18;;;2.03;;
61025;SDS011;46911;32.650;-16.902;2022-09-09T09:48:02;6.00;;;1.67;;
61025;SDS011;46911;32.650;-16.902;2022-09-09T09:50:15;6.60;;;1.42;;
61025;SDS011;46911;32.650;-16.902;2022-09-09T09:52:21;7.85;;;1.75;;
61025;SDS011;46911;32.650;-16.902;2022-09-09T09:54:47;7.50;;;1.63;;
61025;SDS011;46911;32.650;-16.902;2022-09-09T09:56:48;11.68;;;2.00;;
61025;SDS011;46911;32.650;-16.902;2022-09-09T09:58:50;7.85;;;2.00;;
61025;SDS011;46911;32.650;-16.902;2022-09-09T10:01:00;8.10;;;1.40;;
61025;SDS011;46911;32.650;-16.902;2022-09-09T10:03:13;8.23;;;1.70;;
61025;SDS011;46911;32.650;-16.902;2022-09-09T10:05:45;11.98;;;1.75;;
61025;SDS011;46911;32.650;-16.902;2022-09-09T10:10:26;9.25;;;2.47;;
61025;SDS011;46911;32.650;-16.902;2022-09-09T10:19:54;4.78;;;1.30;;
61025;SDS011;46911;32.650;-16.902;2022-09-09T10:22:31;5.90;;;1.40;;
61025;SDS011;46911;32.650;-16.902;2022-09-09T10:25:01;11.25;;;1.50;;
61025;SDS011;46911;32.650;-16.902;2022-09-09T10:29:44;10.32;;;1.77;;
61025;SDS011;46911;32.650;-16.902;2022-09-09T10:36:56;7.72;;;1.77;;
61025;SDS011;46911;32.650;-16.902;2022-09-09T10:48:19;19.65;;;2.28;;
61025;SDS011;46911;32.650;-16.902;2022-09-09T10:50:46;6.95;;;1.70;;
61025;SDS011;46911;32.650;-16.902;2022-09-09T10:55:35;6.20;;;1.30;;
61025;SDS011;46911;32.650;-16.902;2022-09-09T10:57:45;7.25;;;1.73;;
61025;SDS011;46911;32.650;-16.902;2022-09-09T10:59:52;6.10;;;1.25;;
61025;SDS011;46911;32.650;-16.902;2022-09-09T11:02:23;14.10;;;2.50;;
61025;SDS011;46911;32.650;-16.902;2022-09-09T11:06:47;6.28;;;1.35;;
61025;SDS011;46911;32.650;-16.902;2022-09-09T11:08:54;8.30;;;1.73;;
61025;SDS011;46911;32.650;-16.902;2022-09-09T11:10:59;6.15;;;1.20;;
61025;SDS011;46911;32.650;-16.902;2022-09-09T11:13:56;2.90;;;0.98;;
61025;SDS011;46911;32.650;-16.902;2022-09-09T11:15:43;4.63;;;1.38;;
61025;SDS011;46911;32.650;-16.902;2022-09-09T11:17:55;4.90;;;1.27;;
61025;SDS011;46911;32.650;-16.902;2022-09-09T11:19:59;5.40;;;0.90;;
61025;SDS011;46911;32.650;-16.902;2022-09-09T11:22:04;7.65;;;1.13;;
61025;SDS011;46911;32.650;-16.902;2022-09-09T11:24:27;4.88;;;0.93;;
61025;SDS011;46911;32.650;-16.902;2022-09-09T11:26:38;7.22;;;1.13;;
61025;SDS011;46911;32.650;-16.902;2022-09-09T11:31:44;7.93;;;1.30;;
61025;SDS011;46911;32.650;-16.902;2022-09-09T11:40:26;3.92;;;0.70;;
61025;SDS011;46911;32.650;-16.902;2022-09-09T11:42:31;8.43;;;1.92;;
61025;SDS011;46911;32.650;-16.902;2022-09-09T11:44:34;4.10;;;0.95;;
61025;SDS011;46911;32.650;-16.902;2022-09-09T11:46:36;6.55;;;1.63;;
61025;SDS011;46911;32.650;-16.902;2022-09-09T11:48:58;3.85;;;1.90;;
61025;SDS011;46911;32.650;-16.902;2022-09-09T11:51:05;3.55;;;0.80;;
61025;SDS011;46911;32.650;-16.902;2022-09-09T11:53:20;12.98;;;1.92;;
61025;SDS011;46911;32.650;-16.902;2022-09-09T11:59:32;7.90;;;2.60;;
61025;SDS011;46911;32.650;-16.902;2022-09-09T12:01:38;4.55;;;1.27;;
61025;SDS011;46911;32.650;-16.902;2022-09-09T12:03:50;6.88;;;1.17;;
61025;SDS011;46911;32.650;-16.902;2022-09-09T12:05:58;8.23;;;1.60;;
61025;SDS011;46911;32.650;-16.902;2022-09-09T12:08:00;7.15;;;1.13;;
61025;SDS011;46911;32.650;-16.902;2022-09-09T12:12:37;4.28;;;1.10;;
61025;SDS011;46911;32.650;-16.902;2022-09-09T12:16:41;5.25;;;1.30;;
61025;SDS011;46911;32.650;-16.902;2022-09-09T12:18:43;6.40;;;1.35;;
61025;SDS011;46911;32.650;-16.902;2022-09-09T12:20:57;12.82;;;1.70;;
61025;SDS011;46911;32.650;-16.902;2022-09-09T12:23:05;6.57;;;1.60;;
61025;SDS011;46911;32.650;-16.902;2022-09-09T12:25:13;11.90;;;2.08;;
61025;SDS011;46911;32.650;-16.902;2022-09-09T12:30:17;5.38;;;2.22;;
61025;SDS011;46911;32.650;-16.902;2022-09-09T12:32:22;12.57;;;1.48;;
61025;SDS011;46911;32.650;-16.902;2022-09-09T12:34:38;12.80;;;1.60;;
61025;SDS011;46911;32.650;-16.902;2022-09-09T12:36:44;3.80;;;0.95;;
61025;SDS011;46911;32.650;-16.902;2022-09-09T12:38:56;10.57;;;1.52;;
61025;SDS011;46911;32.650;-16.902;2022-09-09T12:41:22;7.57;;;2.25;;
61025;SDS011;46911;32.650;-16.902;2022-09-09T12:43:25;5.07;;;1.20;;
61025;SDS011;46911;32.650;-16.902;2022-09-09T12:45:30;6.30;;;1.52;;
61025;SDS011;46911;32.650;-16.902;2022-09-09T12:47:41;11.23;;;1.75;;
61025;SDS011;46911;32.650;-16.902;2022-09-09T12:49:52;11.63;;;1.65;;
61025;SDS011;46911;32.650;-16.902;2022-09-09T12:51:53;14.00;;;2.55;;
61025;SDS011;46911;32.650;-16.902;2022-09-09T12:53:58;5.93;;;1.65;;
61025;SDS011;46911;32.650;-16.902;2022-09-09T12:56:09;5.47;;;1.20;;
61025;SDS011;46911;32.650;-16.902;2022-09-09T12:58:22;3.05;;;1.20;;
61025;SDS011;46911;32.650;-16.902;2022-09-09T13:00:26;6.18;;;1.20;;
61025;SDS011;46911;32.650;-16.902;2022-09-09T13:02:28;4.88;;;1.38;;
61025;SDS011;46911;32.650;-16.902;2022-09-09T13:04:30;3.38;;;0.77;;
61025;SDS011;46911;32.650;-16.902;2022-09-09T13:06:32;5.80;;;1.25;;
61025;SDS011;46911;32.650;-16.902;2022-09-09T13:08:34;10.32;;;2.28;;
61025;SDS011;46911;32.650;-16.902;2022-09-09T13:10:35;8.63;;;1.75;;
61025;SDS011;46911;32.650;-16.902;2022-09-09T13:12:40;15.18;;;2.80;;
61025;SDS011;46911;32.650;-16.902;2022-09-09T13:14:43;8.60;;;1.42;;
61025;SDS011;46911;32.650;-16.902;2022-09-09T13:16:54;5.80;;;1.20;;
61025;SDS011;46911;32.650;-16.902;2022-09-09T13:19:05;7.18;;;1.13;;
61025;SDS011;46911;32.650;-16.902;2022-09-09T13:21:14;5.65;;;1.30;;
61025;SDS011;46911;32.650;-16.902;2022-09-09T13:23:18;5.57;;;1.23;;
61025;SDS011;46911;32.650;-16.902;2022-09-09T13:25:27;6.82;;;1.38;;
61025;SDS011;46911;32.650;-16.902;2022-09-09T13:27:30;12.23;;;1.77;;
61025;SDS011;46911;32.650;-16.902;2022-09-09T13:29:34;4.82;;;1.30;;
61025;SDS011;46911;32.650;-16.902;2022-09-09T13:31:38;5.82;;;1.40;;
61025;SDS011;46911;32.650;-16.902;2022-09-09T13:33:38;10.10;;;1.60;;
61025;SDS011;46911;32.650;-16.902;2022-09-09T13:35:54;8.13;;;1.70;;
61025;SDS011;46911;32.650;-16.902;2022-09-09T13:38:05;9.00;;;2.03;;
61025;SDS011;46911;32.650;-16.902;2022-09-09T13:42:24;9.45;;;2.22;;
61025;SDS011;46911;32.650;-16.902;2022-09-09T13:44:34;16.80;;;2.85;;
61025;SDS011;46911;32.650;-16.902;2022-09-09T13:46:40;11.50;;;2.05;;
61025;SDS011;46911;32.650;-16.902;2022-09-09T13:48:53;13.23;;;2.10;;
61025;SDS011;46911;32.650;-16.902;2022-09-09T13:51:01;19.35;;;1.90;;
61025;SDS011;46911;32.650;-16.902;2022-09-09T13:53:06;9.68;;;1.80;;
61025;SDS011;46911;32.650;-16.902;2022-09-09T13:55:08;11.57;;;2.40;;
61025;SDS011;46911;32.650;-16.902;2022-09-09T13:57:16;12.57;;;2.65;;
61025;SDS011;46911;32.650;-16.902;2022-09-09T13:59:19;6.88;;;3.45;;
61025;SDS011;46911;32.650;-16.902;2022-09-09T14:01:23;15.35;;;2.60;;
61025;SDS011;46911;32.650;-16.902;2022-09-09T14:03:24;10.55;;;1.52;;
61025;SDS011;46911;32.650;-16.902;2022-09-09T14:05:31;6.93;;;2.67;;
61025;SDS011;46911;32.650;-16.902;2022-09-09T14:07:33;10.85;;;2.13;;
61025;SDS011;46911;32.650;-16.902;2022-09-09T14:09:34;13.18;;;2.10;;
61025;SDS011;46911;32.650;-16.902;2022-09-09T14:11:37;11.80;;;2.20;;
61025;SDS011;46911;32.650;-16.902;2022-09-09T14:13:43;9.07;;;2.20;;
61025;SDS011;46911;32.650;-16.902;2022-09-09T14:15:47;14.07;;;2.33;;
61025;SDS011;46911;32.650;-16.902;2022-09-09T14:17:51;13.00;;;2.20;;
61025;SDS011;46911;32.650;-16.902;2022-09-09T14:19:52;12.88;;;2.80;;